createdAt,value
2022-12-08T00:01:20.278Z,9.70
2022-12-08T00:03:47.520Z,9.30
2022-12-08T00:06:54.577Z,8.57
2022-12-08T00:09:32.027Z,8.85
2022-12-08T00:12:06.536Z,9.43
2022-12-08T00:14:36.477Z,10.05
2022-12-08T00:17:03.768Z,9.20
2022-12-08T00:19:31.020Z,9.05
2022-12-08T00:21:58.213Z,9.88
2022-12-08T00:24:29.760Z,9.27
2022-12-08T00:26:56.088Z,8.68
2022-12-08T00:29:22.478Z,8.73
2022-12-08T00:31:49.011Z,8.43
2022-12-08T00:34:15.774Z,8.10
2022-12-08T00:36:42.587Z,7.68
2022-12-08T00:39:09.219Z,8.57
2022-12-08T00:41:54.034Z,8.85
2022-12-08T00:44:20.433Z,8.75
2022-12-08T00:46:47.810Z,7.97
2022-12-08T00:49:14.989Z,8.80
2022-12-08T00:51:41.948Z,8.88
2022-12-08T00:54:08.739Z,7.82
2022-12-08T00:56:35.146Z,8.35
2022-12-08T00:59:03.151Z,7.68
2022-12-08T01:01:29.578Z,8.10
2022-12-08T01:03:57.127Z,7.90
2022-12-08T01:06:23.597Z,7.95
2022-12-08T01:08:49.990Z,8.15
2022-12-08T01:11:18.640Z,7.35
2022-12-08T01:13:46.004Z,6.60
2022-12-08T01:16:23.313Z,7.35
2022-12-08T01:18:50.219Z,7.15
2022-12-08T01:21:17.317Z,6.43
2022-12-08T01:23:43.774Z,6.57
2022-12-08T01:26:12.271Z,6.32
2022-12-08T01:28:39.518Z,6.50
2022-12-08T01:31:11.880Z,7.50
2022-12-08T01:33:38.282Z,6.55
2022-12-08T01:36:05.387Z,6.93
2022-12-08T01:38:32.327Z,6.88
2022-12-08T01:40:58.889Z,7.13
2022-12-08T01:43:25.262Z,7.07
2022-12-08T01:45:51.797Z,6.65
2022-12-08T01:48:25.679Z,5.95
2022-12-08T01:50:54.073Z,6.32
2022-12-08T01:53:26.634Z,7.00
2022-12-08T01:55:58.399Z,6.53
2022-12-08T01:58:49.773Z,6.45
2022-12-08T02:01:19.198Z,6.13
2022-12-08T02:03:51.613Z,5.72
2022-12-08T02:06:19.460Z,5.47
2022-12-08T02:08:47.546Z,5.90
2022-12-08T02:11:13.979Z,5.55
2022-12-08T02:13:42.805Z,5.75
2022-12-08T02:16:25.536Z,5.90
2022-12-08T02:19:30.905Z,5.97
2022-12-08T02:22:09.446Z,5.50
2022-12-08T02:24:50.466Z,4.30
2022-12-08T02:27:16.798Z,5.15
2022-12-08T02:30:05.766Z,4.78
2022-12-08T02:33:06.089Z,5.25
2022-12-08T02:35:42.756Z,4.68
2022-12-08T02:38:27.620Z,4.43
2022-12-08T02:41:31.338Z,3.88
2022-12-08T02:44:02.527Z,4.55
2022-12-08T02:46:47.105Z,4.60
2022-12-08T02:49:15.165Z,5.13
2022-12-08T02:51:41.600Z,4.68
2022-12-08T02:54:08.439Z,4.60
2022-12-08T02:57:06.349Z,4.60
2022-12-08T02:59:57.672Z,4.90
2022-12-08T03:02:41.865Z,4.53
2022-12-08T03:05:20.442Z,4.38
2022-12-08T03:07:49.853Z,4.70
2022-12-08T03:10:23.360Z,4.38
2022-12-08T03:12:56.456Z,3.75
2022-12-08T03:15:23.229Z,4.45
2022-12-08T03:17:56.057Z,3.92
2022-12-08T03:20:26.235Z,4.45
2022-12-08T03:22:56.082Z,3.90
2022-12-08T03:25:26.230Z,4.00
2022-12-08T03:27:53.931Z,3.67
2022-12-08T03:30:20.266Z,4.53
2022-12-08T03:33:01.617Z,4.10
2022-12-08T03:35:31.217Z,4.05
2022-12-08T03:38:13.768Z,3.70
2022-12-08T03:40:40.561Z,3.90
2022-12-08T03:43:07.289Z,4.22
2022-12-08T03:45:33.742Z,3.97
2022-12-08T03:48:00.780Z,3.80
2022-12-08T03:50:27.517Z,3.47
2022-12-08T03:52:53.970Z,3.28
2022-12-08T03:55:21.469Z,3.22
2022-12-08T03:57:47.866Z,3.80
2022-12-08T04:00:16.936Z,3.63
2022-12-08T04:02:43.435Z,3.72
2022-12-08T04:05:10.466Z,3.42
2022-12-08T04:07:36.965Z,4.40
2022-12-08T04:10:04.772Z,3.63
2022-12-08T04:12:31.599Z,3.40
2022-12-08T04:14:58.033Z,3.92
2022-12-08T04:17:24.439Z,3.30
2022-12-08T04:19:50.894Z,3.40
2022-12-08T04:22:17.306Z,4.10
2022-12-08T04:24:43.630Z,3.60
2022-12-08T04:27:10.048Z,3.55
2022-12-08T04:29:36.414Z,3.30
2022-12-08T04:32:02.812Z,3.78
2022-12-08T04:34:29.141Z,3.80
2022-12-08T04:36:55.590Z,3.55
2022-12-08T04:39:21.934Z,3.67
2022-12-08T04:41:48.261Z,3.50
2022-12-08T04:44:14.645Z,3.38
2022-12-08T04:46:43.626Z,3.58
2022-12-08T04:49:10.459Z,3.38
2022-12-08T04:51:36.838Z,3.65
2022-12-08T04:54:03.244Z,3.95
2022-12-08T04:56:29.702Z,3.70
2022-12-08T04:58:56.203Z,3.60
2022-12-08T05:01:22.618Z,3.88
2022-12-08T05:03:49.162Z,3.30
2022-12-08T05:06:15.579Z,3.72
2022-12-08T05:08:42.777Z,3.78
2022-12-08T05:11:11.254Z,3.42
2022-12-08T05:13:37.929Z,3.78
2022-12-08T05:16:13.355Z,3.50
2022-12-08T05:18:40.702Z,3.90
2022-12-08T05:21:07.800Z,3.78
2022-12-08T05:23:34.938Z,3.85
2022-12-08T05:26:01.685Z,3.88
2022-12-08T05:28:44.178Z,4.35
2022-12-08T05:31:12.156Z,3.92
2022-12-08T05:33:38.545Z,4.00
2022-12-08T05:36:05.091Z,4.13
2022-12-08T05:38:31.436Z,4.03
2022-12-08T05:40:58.352Z,4.95
2022-12-08T05:43:24.750Z,4.85
2022-12-08T05:45:51.180Z,4.15
2022-12-08T05:48:17.607Z,5.00
2022-12-08T05:50:48.558Z,4.30
2022-12-08T05:53:16.361Z,5.15
2022-12-08T05:55:42.850Z,4.95
2022-12-08T05:58:12.804Z,5.32
2022-12-08T06:00:39.448Z,5.38
2022-12-08T06:03:05.907Z,5.05
2022-12-08T06:05:33.656Z,4.80
2022-12-08T06:08:00.159Z,5.20
2022-12-08T06:10:26.549Z,4.82
2022-12-08T06:12:52.960Z,5.20
2022-12-08T06:15:19.521Z,5.05
2022-12-08T06:17:45.969Z,5.43
2022-12-08T06:20:12.474Z,6.07
2022-12-08T06:22:38.885Z,5.03
2022-12-08T06:25:09.555Z,5.22
2022-12-08T06:27:36.432Z,5.50
2022-12-08T06:30:03.718Z,5.47
2022-12-08T06:32:30.438Z,5.40
2022-12-08T06:34:56.844Z,5.65
2022-12-08T06:37:23.230Z,5.60
2022-12-08T06:39:49.568Z,5.43
2022-12-08T06:42:34.716Z,4.97
2022-12-08T06:45:01.281Z,5.82
2022-12-08T06:47:27.654Z,6.55
2022-12-08T06:49:54.148Z,6.28
2022-12-08T06:52:20.584Z,5.85
2022-12-08T06:54:46.903Z,6.18
2022-12-08T06:57:13.246Z,6.32
2022-12-08T06:59:39.884Z,5.88
2022-12-08T07:02:06.833Z,6.30
2022-12-08T07:04:33.304Z,5.97
2022-12-08T07:06:59.706Z,5.80
2022-12-08T07:09:26.142Z,6.03
2022-12-08T07:11:52.614Z,5.93
2022-12-08T07:14:23.466Z,5.57
2022-12-08T07:16:52.802Z,5.97
2022-12-08T07:19:19.302Z,5.55
2022-12-08T07:21:45.803Z,5.05
2022-12-08T07:24:12.667Z,4.90
2022-12-08T07:26:39.840Z,4.70
2022-12-08T07:29:06.319Z,5.88
2022-12-08T07:31:32.838Z,5.18
2022-12-08T07:33:59.246Z,5.30
2022-12-08T07:36:25.931Z,5.55
2022-12-08T07:38:55.692Z,6.10
2022-12-08T07:41:25.372Z,5.85
2022-12-08T07:43:53.562Z,5.20
2022-12-08T07:46:23.451Z,4.95
2022-12-08T07:48:50.277Z,5.90
2022-12-08T07:51:17.085Z,5.05
2022-12-08T07:53:51.643Z,5.78
2022-12-08T07:56:20.376Z,5.60
2022-12-08T07:58:46.993Z,5.70
2022-12-08T08:01:27.975Z,4.95
2022-12-08T08:03:56.802Z,5.57
2022-12-08T08:06:23.829Z,5.45
2022-12-08T08:08:50.321Z,5.60
2022-12-08T08:11:21.399Z,5.88
2022-12-08T08:13:49.555Z,5.13
2022-12-08T08:16:16.100Z,5.05
2022-12-08T08:18:43.539Z,5.93
2022-12-08T08:21:43.233Z,4.90
2022-12-08T08:23:56.282Z,4.95
2022-12-08T08:26:22.715Z,5.60
2022-12-08T08:28:49.965Z,5.47
2022-12-08T08:31:16.418Z,5.00
2022-12-08T08:33:42.836Z,4.78
2022-12-08T08:36:09.826Z,5.05
2022-12-08T08:38:40.006Z,4.90
2022-12-08T08:41:10.833Z,5.60
2022-12-08T08:43:38.612Z,5.32
2022-12-08T08:46:06.569Z,4.90
2022-12-08T08:48:33.554Z,5.20
2022-12-08T08:51:07.772Z,5.82
2022-12-08T08:53:34.418Z,5.20
2022-12-08T08:56:02.957Z,4.88
2022-12-08T08:58:29.552Z,5.32
2022-12-08T09:00:56.314Z,5.40
2022-12-08T09:03:22.779Z,5.00
2022-12-08T09:05:50.597Z,5.55
2022-12-08T09:08:19.434Z,6.05
2022-12-08T09:10:45.944Z,5.45
2022-12-08T09:13:12.363Z,5.95
2022-12-08T09:15:38.894Z,5.28
2022-12-08T09:18:06.701Z,5.32
2022-12-08T09:20:34.460Z,5.20
2022-12-08T09:23:01.010Z,6.35
2022-12-08T09:25:28.629Z,6.00
2022-12-08T09:27:55.046Z,6.45
2022-12-08T09:30:21.450Z,5.30
2022-12-08T09:32:47.847Z,6.22
2022-12-08T09:35:14.285Z,5.45
2022-12-08T09:37:40.648Z,5.82
2022-12-08T09:40:08.218Z,5.80
2022-12-08T09:43:08.830Z,6.28
2022-12-08T09:45:36.502Z,6.13
2022-12-08T09:48:15.958Z,6.10
2022-12-08T09:50:54.347Z,5.97
2022-12-08T09:53:42.066Z,6.43
2022-12-08T09:56:15.357Z,5.65
2022-12-08T09:58:53.183Z,5.55
2022-12-08T10:01:22.170Z,6.18
2022-12-08T10:03:49.226Z,5.28
2022-12-08T10:06:30.647Z,6.40
2022-12-08T10:09:22.957Z,6.35
2022-12-08T10:12:27.293Z,5.40
2022-12-08T10:15:08.875Z,4.97
2022-12-08T10:17:41.019Z,5.10
2022-12-08T10:20:13.352Z,5.25
2022-12-08T10:22:44.508Z,5.78
2022-12-08T10:25:18.071Z,5.07
2022-12-08T10:27:48.527Z,5.38
2022-12-08T10:30:17.028Z,5.40
2022-12-08T10:32:46.290Z,4.93
2022-12-08T10:35:15.462Z,5.63
2022-12-08T10:37:54.443Z,5.72
2022-12-08T10:40:20.833Z,5.20
2022-12-08T10:42:50.988Z,6.28
2022-12-08T10:45:24.038Z,5.18
2022-12-08T10:47:59.087Z,5.40
2022-12-08T10:52:58.527Z,5.22
2022-12-08T10:55:25.296Z,4.82
2022-12-08T10:57:51.875Z,5.38
2022-12-08T11:00:21.499Z,5.10
2022-12-08T11:03:03.264Z,4.93
2022-12-08T11:05:35.488Z,4.80
2022-12-08T11:08:04.493Z,5.00
2022-12-08T11:10:37.790Z,5.45
2022-12-08T11:13:06.894Z,5.43
2022-12-08T11:15:39.874Z,5.15
2022-12-08T11:18:22.963Z,5.18
2022-12-08T11:20:58.499Z,4.72
2022-12-08T11:23:26.789Z,5.10
2022-12-08T11:25:57.741Z,4.68
2022-12-08T11:28:25.325Z,4.35
2022-12-08T11:31:01.390Z,4.88
2022-12-08T11:33:28.401Z,4.10
2022-12-08T11:36:00.621Z,4.70
2022-12-08T11:38:28.583Z,4.70
2022-12-08T11:41:16.150Z,4.85
2022-12-08T11:43:49.111Z,5.35
2022-12-08T11:46:21.865Z,4.75
2022-12-08T11:49:09.262Z,4.57
2022-12-08T11:51:42.086Z,4.47
2022-12-08T11:54:25.051Z,4.25
2022-12-08T11:57:00.539Z,5.10
2022-12-08T11:59:35.790Z,4.70
2022-12-08T12:02:04.375Z,4.18
2022-12-08T12:04:44.154Z,4.50
2022-12-08T12:07:35.529Z,5.30
2022-12-08T12:10:29.361Z,5.13
2022-12-08T12:13:31.243Z,4.55
2022-12-08T12:16:12.501Z,4.40
2022-12-08T12:18:47.372Z,4.70
2022-12-08T12:21:19.121Z,4.57
2022-12-08T12:24:10.118Z,3.97
2022-12-08T12:26:54.663Z,5.03
2022-12-08T12:29:25.964Z,4.63
2022-12-08T12:31:58.234Z,5.30
2022-12-08T12:34:29.009Z,4.32
2022-12-08T12:37:06.242Z,4.57
2022-12-08T12:39:46.695Z,4.35
2022-12-08T12:42:38.102Z,4.78
2022-12-08T12:45:27.311Z,4.20
2022-12-08T12:47:57.263Z,4.07
2022-12-08T12:50:33.261Z,4.72
2022-12-08T12:53:18.128Z,4.63
2022-12-08T12:55:53.740Z,4.30
2022-12-08T12:58:32.145Z,3.85
2022-12-08T13:01:11.190Z,4.60
2022-12-08T13:03:40.174Z,3.58
2022-12-08T13:06:14.580Z,4.13
2022-12-08T13:08:51.866Z,4.50
2022-12-08T13:11:18.551Z,3.78
2022-12-08T13:14:03.484Z,4.07
2022-12-08T13:16:39.163Z,4.00
2022-12-08T13:19:15.700Z,3.00
2022-12-08T13:21:42.233Z,3.95
2022-12-08T13:24:17.620Z,3.20
2022-12-08T13:26:48.005Z,3.58
2022-12-08T13:29:20.773Z,3.42
2022-12-08T13:31:50.951Z,3.88
2022-12-08T13:34:22.922Z,3.75
2022-12-08T13:36:59.877Z,3.65
2022-12-08T13:39:57.768Z,4.60
2022-12-08T13:42:27.340Z,3.45
2022-12-08T13:45:33.613Z,3.60
2022-12-08T13:55:06.867Z,3.45
2022-12-08T13:57:05.479Z,3.45
2022-12-08T13:59:44.179Z,3.92
2022-12-08T14:02:26.954Z,3.30
2022-12-08T14:05:17.415Z,3.33
2022-12-08T14:07:42.814Z,2.65
2022-12-08T14:10:23.528Z,3.38
2022-12-08T14:12:57.033Z,2.80
2022-12-08T14:15:25.389Z,4.25
2022-12-08T14:17:56.884Z,2.97
2022-12-08T14:20:31.647Z,3.33
2022-12-08T14:23:01.932Z,2.97
2022-12-08T14:25:29.634Z,2.42
2022-12-08T14:28:01.309Z,2.70
2022-12-08T14:30:50.902Z,2.97
2022-12-08T14:33:17.382Z,2.72
2022-12-08T14:35:50.674Z,2.38
2022-12-08T14:38:19.074Z,2.50
2022-12-08T14:40:59.083Z,2.42
2022-12-08T14:43:27.725Z,2.33
2022-12-08T14:45:59.863Z,1.95
2022-12-08T14:48:41.969Z,1.98
2022-12-08T14:51:23.462Z,3.22
2022-12-08T14:54:10.151Z,4.20
2022-12-08T14:56:50.257Z,4.70
2022-12-08T14:59:35.247Z,3.38
2022-12-08T15:02:15.790Z,2.78
2022-12-08T15:04:45.759Z,3.22
2022-12-08T15:07:17.740Z,4.93
2022-12-08T15:09:46.951Z,3.33
2022-12-08T15:12:13.393Z,2.53
2022-12-08T15:15:04.069Z,2.38
2022-12-08T15:17:53.669Z,2.33
2022-12-08T15:20:39.284Z,2.40
2022-12-08T15:23:05.770Z,1.80
2022-12-08T15:25:32.270Z,2.42
2022-12-08T15:27:58.669Z,2.70
2022-12-08T15:30:28.543Z,2.20
2022-12-08T15:32:55.999Z,2.30
2022-12-08T15:35:22.724Z,2.42
2022-12-08T15:37:49.136Z,2.60
2022-12-08T15:40:18.748Z,2.40
2022-12-08T15:42:45.383Z,2.55
2022-12-08T15:45:13.796Z,1.92
2022-12-08T15:47:42.038Z,2.20
2022-12-08T15:50:19.376Z,2.17
2022-12-08T15:52:46.709Z,4.10
2022-12-08T15:55:15.021Z,3.28
2022-12-08T16:00:53.055Z,2.40
2022-12-08T16:04:27.544Z,2.28
2022-12-08T16:09:12.820Z,3.13
2022-12-08T16:12:07.748Z,3.35
2022-12-08T16:17:21.395Z,2.33
2022-12-08T16:19:47.902Z,2.30
2022-12-08T16:22:52.469Z,2.83
2022-12-08T16:25:21.105Z,2.72
2022-12-08T16:28:12.496Z,2.45
2022-12-08T16:30:40.525Z,2.50
2022-12-08T16:33:07.173Z,2.63
2022-12-08T16:35:33.823Z,2.25
2022-12-08T16:38:00.201Z,2.60
2022-12-08T16:40:26.534Z,2.47
2022-12-08T16:42:53.111Z,2.35
2022-12-08T16:45:22.154Z,2.50
2022-12-08T16:47:54.666Z,2.55
2022-12-08T16:50:27.581Z,2.20
2022-12-08T16:53:12.795Z,2.38
2022-12-08T16:55:39.795Z,2.58
2022-12-08T16:58:06.277Z,14.38
2022-12-08T17:00:37.363Z,20.98
2022-12-08T17:03:10.585Z,11.20
2022-12-08T17:05:39.844Z,10.57
2022-12-08T17:08:06.645Z,5.40
2022-12-08T17:10:34.514Z,5.53
2022-12-08T17:13:01.684Z,4.97
2022-12-08T17:15:28.354Z,3.35
2022-12-08T17:17:55.081Z,3.78
2022-12-08T17:20:26.362Z,3.03
2022-12-08T17:22:57.709Z,2.90
2022-12-08T17:25:26.187Z,2.90
2022-12-08T17:27:52.630Z,3.00
2022-12-08T17:30:19.565Z,3.05
2022-12-08T17:32:46.054Z,2.80
2022-12-08T17:35:13.287Z,3.13
2022-12-08T17:37:39.650Z,2.42
2022-12-08T17:40:06.916Z,3.20
2022-12-08T17:42:33.631Z,2.65
2022-12-08T17:45:00.029Z,2.75
2022-12-08T17:47:26.490Z,2.95
2022-12-08T17:49:52.961Z,2.47
2022-12-08T17:52:19.354Z,2.90
2022-12-08T17:54:45.770Z,2.45
2022-12-08T17:57:12.189Z,2.80
2022-12-08T17:59:38.577Z,2.83
2022-12-08T18:02:05.265Z,2.88
2022-12-08T18:04:31.703Z,2.60
2022-12-08T18:07:00.130Z,2.63
2022-12-08T18:09:27.066Z,2.83
2022-12-08T18:11:53.456Z,2.38
2022-12-08T18:14:19.833Z,3.15
2022-12-08T18:16:47.375Z,2.30
2022-12-08T18:19:15.045Z,3.28
2022-12-08T18:21:42.071Z,3.33
2022-12-08T18:24:15.893Z,3.08
2022-12-08T18:26:42.261Z,2.72
2022-12-08T18:29:08.784Z,2.72
2022-12-08T18:31:35.626Z,3.15
2022-12-08T18:34:02.059Z,3.13
2022-12-08T18:36:28.484Z,2.92
2022-12-08T18:38:54.821Z,3.15
2022-12-08T18:41:24.481Z,3.13
2022-12-08T18:43:51.516Z,9.10
2022-12-08T18:46:17.916Z,25.63
2022-12-08T18:48:47.203Z,32.38
2022-12-08T18:51:16.024Z,41.28
2022-12-08T18:53:43.375Z,42.30
2022-12-08T18:56:21.049Z,29.98
2022-12-08T18:58:47.510Z,23.77
2022-12-08T19:01:14.381Z,12.80
2022-12-08T19:03:45.680Z,7.55
2022-12-08T19:06:25.094Z,6.47
2022-12-08T19:08:51.524Z,8.32
2022-12-08T19:11:29.019Z,8.57
2022-12-08T19:13:56.007Z,4.80
2022-12-08T19:16:23.467Z,4.65
2022-12-08T19:18:50.042Z,5.35
2022-12-08T19:21:16.449Z,4.72
2022-12-08T19:23:42.785Z,6.05
2022-12-08T19:26:11.980Z,5.07
2022-12-08T19:28:40.851Z,4.15
2022-12-08T19:31:08.816Z,4.25
2022-12-08T19:33:36.904Z,3.95
2022-12-08T19:36:14.877Z,4.20
2022-12-08T19:38:59.860Z,4.13
2022-12-08T19:41:45.322Z,4.15
2022-12-08T19:47:02.905Z,6.63
2022-12-08T19:49:29.421Z,8.95
2022-12-08T19:51:56.146Z,7.95
2022-12-08T19:54:22.502Z,7.95
2022-12-08T19:56:48.909Z,6.88
2022-12-08T19:59:15.692Z,7.03
2022-12-08T20:01:43.832Z,6.70
2022-12-08T20:04:17.122Z,7.28
2022-12-08T20:06:44.286Z,6.80
2022-12-08T20:09:11.800Z,6.55
2022-12-08T20:11:39.278Z,5.88
2022-12-08T20:14:06.528Z,6.68
2022-12-08T20:16:33.662Z,8.30
2022-12-08T20:19:00.765Z,6.05
2022-12-08T20:21:27.609Z,6.38
2022-12-08T20:23:54.504Z,5.15
2022-12-08T20:26:22.320Z,5.78
2022-12-08T20:28:49.735Z,5.60
2022-12-08T20:31:21.574Z,5.30
2022-12-08T20:33:48.058Z,5.93
2022-12-08T20:36:20.116Z,5.47
2022-12-08T20:38:47.867Z,4.95
2022-12-08T20:41:17.518Z,4.45
2022-12-08T20:43:45.220Z,4.90
2022-12-08T20:46:14.502Z,5.07
2022-12-08T20:48:42.304Z,5.10
2022-12-08T20:51:11.974Z,4.63
2022-12-08T20:53:38.373Z,4.35
2022-12-08T20:56:04.969Z,4.78
2022-12-08T20:58:31.359Z,4.80
2022-12-08T21:00:57.835Z,4.60
2022-12-08T21:03:24.247Z,4.80
2022-12-08T21:05:52.117Z,4.38
2022-12-08T21:08:19.645Z,5.10
2022-12-08T21:10:53.560Z,4.65
2022-12-08T21:13:20.014Z,4.60
2022-12-08T21:15:46.869Z,4.70
2022-12-08T21:18:15.668Z,4.72
2022-12-08T21:20:42.730Z,5.00
2022-12-08T21:23:09.791Z,5.10
2022-12-08T21:25:40.375Z,5.13
2022-12-08T21:28:06.841Z,4.82
2022-12-08T21:30:33.383Z,5.63
2022-12-08T21:32:59.980Z,5.50
2022-12-08T21:35:27.319Z,5.15
2022-12-08T21:37:53.658Z,5.15
2022-12-08T21:40:20.159Z,5.55
2022-12-08T21:42:46.857Z,5.68
2022-12-08T21:45:18.792Z,6.63
2022-12-08T21:47:46.749Z,7.25
2022-12-08T21:50:13.996Z,6.50
2022-12-08T21:52:42.720Z,5.90
2022-12-08T21:55:12.179Z,5.57
2022-12-08T21:57:39.229Z,6.55
2022-12-08T22:00:13.274Z,6.40
2022-12-08T22:02:39.981Z,5.97
2022-12-08T22:05:06.807Z,5.22
2022-12-08T22:07:33.340Z,5.22
2022-12-08T22:09:59.930Z,4.97
2022-12-08T22:12:26.435Z,4.80
2022-12-08T22:14:52.883Z,4.80
2022-12-08T22:17:19.805Z,4.80
2022-12-08T22:19:46.452Z,5.05
2022-12-08T22:22:12.945Z,5.35
2022-12-08T22:24:39.447Z,6.00
2022-12-08T22:27:05.979Z,5.00
2022-12-08T22:29:32.441Z,5.78
2022-12-08T22:31:59.054Z,5.32
2022-12-08T22:34:25.651Z,4.65
2022-12-08T22:36:52.095Z,4.80
2022-12-08T22:39:18.573Z,5.78
2022-12-08T22:41:45.085Z,5.38
2022-12-08T22:44:12.588Z,5.45
2022-12-08T22:46:39.356Z,5.63
2022-12-08T22:49:05.953Z,5.75
2022-12-08T22:51:36.140Z,6.40
2022-12-08T22:54:02.568Z,6.53
2022-12-08T22:56:29.052Z,6.35
2022-12-08T22:58:55.659Z,6.40
2022-12-08T23:01:31.488Z,5.60
2022-12-08T23:03:59.446Z,5.18
2022-12-08T23:06:27.402Z,5.47
2022-12-08T23:08:55.024Z,5.10
2022-12-08T23:11:23.984Z,4.75
2022-12-08T23:13:50.373Z,4.45
2022-12-08T23:16:16.854Z,5.15
2022-12-08T23:18:45.486Z,5.60
2022-12-08T23:21:15.367Z,5.25
2022-12-08T23:23:42.016Z,5.40
2022-12-08T23:26:17.498Z,5.32
2022-12-08T23:28:43.914Z,5.47
2022-12-08T23:31:10.383Z,5.35
2022-12-08T23:33:36.828Z,5.15
2022-12-08T23:36:03.422Z,5.45
2022-12-08T23:38:29.868Z,5.03
2022-12-08T23:41:04.291Z,4.82
2022-12-08T23:43:30.883Z,4.43
2022-12-08T23:45:57.457Z,4.72
2022-12-08T23:48:23.908Z,4.93
2022-12-08T23:50:50.597Z,4.90
2022-12-08T23:53:17.034Z,5.55
2022-12-08T23:55:43.549Z,5.75
2022-12-08T23:58:10.820Z,5.93
